Time,TemperatureF,DewpointF,PressureIn,WindDirection,WindDirectionDegrees,WindSpeedMPH,WindSpeedGustMPH,Humidity,HourlyPrecipIn,Conditions,Clouds,dailyrainin,SoftwareType,DateUTC
2013-06-05 00:03:00,51.0,-99.9,-100.00,North,-999,0.0,1.0,-999,-99.99,,,-99.99,,2013-06-05 04:03:00,
2013-06-05 00:13:00,51.0,-99.9,-100.00,North,-999,0.0,1.0,-999,-99.99,,,-99.99,,2013-06-05 04:13:00,
2013-06-05 00:23:00,51.0,-99.9,-100.00,North,-999,0.0,1.0,-999,-99.99,,,-99.99,,2013-06-05 04:23:00,
2013-06-05 00:33:00,51.0,-99.9,-100.00,North,-999,0.0,1.0,-999,-99.99,,,-99.99,,2013-06-05 04:33:00,
2013-06-05 00:40:00,52.0,-99.9,-100.00,SW,215,4.0,6.0,-999,-99.99,,,-99.99,,2013-06-05 04:40:00,
2013-06-05 01:03:00,52.0,-99.9,-100.00,SW,215,4.0,6.0,-999,-99.99,,,-99.99,,2013-06-05 05:03:00,
2013-06-05 01:12:00,52.0,-99.9,-100.00,SW,215,4.0,6.0,-999,-99.99,,,-99.99,,2013-06-05 05:12:00,
2013-06-05 01:23:00,52.0,-99.9,-100.00,SW,215,4.0,6.0,-999,-99.99,,,-99.99,,2013-06-05 05:23:00,
2013-06-05 01:32:00,52.0,-99.9,-100.00,SW,215,4.0,6.0,-999,-99.99,,,-99.99,,2013-06-05 05:32:00,
2013-06-05 01:40:00,51.0,-99.9,-100.00,WSW,240,3.0,4.0,-999,-99.99,,,-99.99,,2013-06-05 05:40:00,
2013-06-05 02:12:00,51.0,-99.9,-100.00,WSW,240,3.0,4.0,-999,-99.99,,,-99.99,,2013-06-05 06:12:00,
2013-06-05 02:22:00,51.0,-99.9,-100.00,WSW,240,3.0,4.0,-999,-99.99,,,-99.99,,2013-06-05 06:22:00,
2013-06-05 02:32:00,51.0,-99.9,-100.00,WSW,240,3.0,4.0,-999,-99.99,,,-99.99,,2013-06-05 06:32:00,
2013-06-05 02:40:00,50.0,-99.9,-100.00,NW,319,3.0,3.0,-999,-99.99,,,-99.99,,2013-06-05 06:40:00,
2013-06-05 03:12:00,50.0,-99.9,-100.00,NW,319,3.0,3.0,-999,-99.99,,,-99.99,,2013-06-05 07:12:00,
2013-06-05 03:22:00,50.0,-99.9,-100.00,NW,319,3.0,3.0,-999,-99.99,,,-99.99,,2013-06-05 07:22:00,
2013-06-05 03:32:00,50.0,-99.9,-100.00,NW,319,3.0,3.0,-999,-99.99,,,-99.99,,2013-06-05 07:32:00,
2013-06-05 03:40:00,51.0,-99.9,-100.00,South,189,5.0,5.0,-999,-99.99,,,-99.99,,2013-06-05 07:40:00,
2013-06-05 04:12:00,51.0,-99.9,-100.00,South,189,5.0,5.0,-999,-99.99,,,-99.99,,2013-06-05 08:12:00,
2013-06-05 04:22:00,51.0,-99.9,-100.00,South,189,5.0,5.0,-999,-99.99,,,-99.99,,2013-06-05 08:22:00,
2013-06-05 04:32:00,51.0,-99.9,-100.00,South,189,5.0,5.0,-999,-99.99,,,-99.99,,2013-06-05 08:32:00,
2013-06-05 04:40:00,51.0,-99.9,-100.00,SSE,162,1.0,2.0,-999,-99.99,,,-99.99,,2013-06-05 08:40:00,
2013-06-05 05:02:00,51.0,-99.9,-100.00,SSE,162,1.0,2.0,-999,-99.99,,,-99.99,,2013-06-05 09:02:00,
2013-06-05 05:12:00,51.0,-99.9,-100.00,SSE,162,1.0,2.0,-999,-99.99,,,-99.99,,2013-06-05 09:12:00,
2013-06-05 05:22:00,51.0,-99.9,-100.00,SSE,162,1.0,2.0,-999,-99.99,,,-99.99,,2013-06-05 09:22:00,
2013-06-05 05:33:00,51.0,-99.9,-100.00,SSE,162,1.0,2.0,-999,-99.99,,,-99.99,,2013-06-05 09:33:00,
2013-06-05 05:40:00,49.0,-99.9,-100.00,NE,38,5.0,7.0,-999,-99.99,,,-99.99,,2013-06-05 09:40:00,
2013-06-05 06:03:00,49.0,-99.9,-100.00,NE,38,5.0,7.0,-999,-99.99,,,-99.99,,2013-06-05 10:03:00,
2013-06-05 06:13:00,49.0,-99.9,-100.00,NE,38,5.0,7.0,-999,-99.99,,,-99.99,,2013-06-05 10:13:00,
2013-06-05 06:23:00,49.0,-99.9,-100.00,NE,38,5.0,7.0,-999,-99.99,,,-99.99,,2013-06-05 10:23:00,
2013-06-05 06:33:00,49.0,-99.9,-100.00,NE,38,5.0,7.0,-999,-99.99,,,-99.99,,2013-06-05 10:33:00,
2013-06-05 06:40:00,49.0,-99.9,-100.00,ENE,58,5.0,7.0,-999,-99.99,,,-99.99,,2013-06-05 10:40:00,
2013-06-05 07:02:00,49.0,-99.9,-100.00,ENE,58,5.0,7.0,-999,-99.99,,,-99.99,,2013-06-05 11:02:00,
2013-06-05 07:13:00,49.0,-99.9,-100.00,ENE,58,5.0,7.0,-999,-99.99,,,-99.99,,2013-06-05 11:13:00,
2013-06-05 07:22:00,49.0,-99.9,-100.00,ENE,58,5.0,7.0,-999,-99.99,,,-99.99,,2013-06-05 11:22:00,
2013-06-05 07:33:00,49.0,-99.9,-100.00,ENE,58,5.0,7.0,-999,-99.99,,,-99.99,,2013-06-05 11:33:00,
2013-06-05 07:40:00,50.0,-99.9,-100.00,East,83,3.0,7.0,-999,-99.99,,,-99.99,,2013-06-05 11:40:00,
2013-06-05 08:02:00,50.0,-99.9,-100.00,East,83,3.0,7.0,-999,-99.99,,,-99.99,,2013-06-05 12:02:00,
2013-06-05 08:12:00,50.0,-99.9,-100.00,East,83,3.0,7.0,-999,-99.99,,,-99.99,,2013-06-05 12:12:00,
2013-06-05 08:22:00,50.0,-99.9,-100.00,East,83,3.0,7.0,-999,-99.99,,,-99.99,,2013-06-05 12:22:00,
2013-06-05 08:32:00,50.0,-99.9,-100.00,East,83,3.0,7.0,-999,-99.99,,,-99.99,,2013-06-05 12:32:00,
2013-06-05 08:40:00,50.0,-99.9,-100.00,East,101,3.0,4.0,-999,-99.99,,,-99.99,,2013-06-05 12:40:00,
2013-06-05 09:02:00,50.0,-99.9,-100.00,East,101,3.0,4.0,-999,-99.99,,,-99.99,,2013-06-05 13:02:00,
2013-06-05 09:12:00,50.0,-99.9,-100.00,East,101,3.0,4.0,-999,-99.99,,,-99.99,,2013-06-05 13:12:00,
2013-06-05 09:22:00,50.0,-99.9,-100.00,East,101,3.0,4.0,-999,-99.99,,,-99.99,,2013-06-05 13:22:00,
2013-06-05 09:33:00,50.0,-99.9,-100.00,East,101,3.0,4.0,-999,-99.99,,,-99.99,,2013-06-05 13:33:00,
2013-06-05 09:40:00,49.0,-99.9,-100.00,ENE,62,4.0,5.0,-999,-99.99,,,-99.99,,2013-06-05 13:40:00,
2013-06-05 10:13:00,49.0,-99.9,-100.00,ENE,62,4.0,5.0,-999,-99.99,,,-99.99,,2013-06-05 14:13:00,
2013-06-05 10:22:00,49.0,-99.9,-100.00,ENE,62,4.0,5.0,-999,-99.99,,,-99.99,,2013-06-05 14:22:00,
2013-06-05 10:32:00,49.0,-99.9,-100.00,ENE,62,4.0,5.0,-999,-99.99,,,-99.99,,2013-06-05 14:32:00,
2013-06-05 10:40:00,48.0,-99.9,-100.00,ENE,76,4.0,7.0,-999,-99.99,,,-99.99,,2013-06-05 14:40:00,
2013-06-05 11:03:00,48.0,-99.9,-100.00,ENE,76,4.0,7.0,-999,-99.99,,,-99.99,,2013-06-05 15:03:00,
2013-06-05 11:13:00,48.0,-99.9,-100.00,ENE,76,4.0,7.0,-999,-99.99,,,-99.99,,2013-06-05 15:13:00,
2013-06-05 11:23:00,48.0,-99.9,-100.00,ENE,76,4.0,7.0,-999,-99.99,,,-99.99,,2013-06-05 15:23:00,
2013-06-05 11:33:00,48.0,-99.9,-100.00,ENE,76,4.0,7.0,-999,-99.99,,,-99.99,,2013-06-05 15:33:00,
2013-06-05 11:40:00,49.0,-99.9,-100.00,ENE,62,5.0,12.0,-999,-99.99,,,-99.99,,2013-06-05 15:40:00,
2013-06-05 12:04:00,49.0,-99.9,-100.00,ENE,62,5.0,12.0,-999,-99.99,,,-99.99,,2013-06-05 16:04:00,
2013-06-05 12:13:00,49.0,-99.9,-100.00,ENE,62,5.0,12.0,-999,-99.99,,,-99.99,,2013-06-05 16:13:00,
2013-06-05 12:23:00,49.0,-99.9,-100.00,ENE,62,5.0,12.0,-999,-99.99,,,-99.99,,2013-06-05 16:23:00,
2013-06-05 12:32:00,49.0,-99.9,-100.00,ENE,62,5.0,12.0,-999,-99.99,,,-99.99,,2013-06-05 16:32:00,
2013-06-05 12:54:00,50.0,-99.9,-100.00,ENE,58,12.0,24.0,-999,-99.99,,,-99.99,,2013-06-05 16:54:00,
2013-06-05 13:03:00,50.0,-99.9,-100.00,ENE,58,12.0,17.0,-999,-99.99,,,-99.99,,2013-06-05 17:03:00,
2013-06-05 13:13:00,50.0,-99.9,-100.00,ENE,58,12.0,17.0,-999,-99.99,,,-99.99,,2013-06-05 17:13:00,
2013-06-05 13:23:00,50.0,-99.9,-100.00,ENE,58,12.0,17.0,-999,-99.99,,,-99.99,,2013-06-05 17:23:00,
2013-06-05 13:33:00,50.0,-99.9,-100.00,ENE,58,12.0,24.0,-999,-99.99,,,-99.99,,2013-06-05 17:33:00,
2013-06-05 13:40:00,51.0,-99.9,-100.00,ENE,64,10.0,15.0,-999,-99.99,,,-99.99,,2013-06-05 17:40:00,
2013-06-05 13:43:00,50.0,-99.9,-100.00,ENE,58,12.0,24.0,-999,-99.99,,,-99.99,,2013-06-05 17:43:00,
2013-06-05 13:52:00,50.0,-99.9,-100.00,ENE,58,12.0,24.0,-999,-99.99,,,-99.99,,2013-06-05 17:52:00,
2013-06-05 14:03:00,50.0,-99.9,-100.00,ENE,58,12.0,24.0,-999,-99.99,,,-99.99,,2013-06-05 18:03:00,
2013-06-05 14:13:00,51.0,-99.9,-100.00,ENE,64,10.0,15.0,-999,-99.99,,,-99.99,,2013-06-05 18:13:00,
2013-06-05 14:23:00,51.0,-99.9,-100.00,ENE,64,10.0,15.0,-999,-99.99,,,-99.99,,2013-06-05 18:23:00,
2013-06-05 14:32:00,51.0,-99.9,-100.00,ENE,64,10.0,15.0,-999,-99.99,,,-99.99,,2013-06-05 18:32:00,
2013-06-05 14:40:00,52.0,-99.9,-100.00,ENE,64,9.0,15.0,-999,-99.99,,,-99.99,,2013-06-05 18:40:00,
2013-06-05 15:03:00,52.0,-99.9,-100.00,ENE,64,9.0,15.0,-999,-99.99,,,-99.99,,2013-06-05 19:03:00,
2013-06-05 15:13:00,52.0,-99.9,-100.00,ENE,64,9.0,15.0,-999,-99.99,,,-99.99,,2013-06-05 19:13:00,
2013-06-05 15:23:00,52.0,-99.9,-100.00,ENE,64,9.0,15.0,-999,-99.99,,,-99.99,,2013-06-05 19:23:00,
2013-06-05 15:32:00,52.0,-99.9,-100.00,ENE,64,9.0,15.0,-999,-99.99,,,-99.99,,2013-06-05 19:32:00,
2013-06-05 15:40:00,52.0,-99.9,-100.00,ENE,75,13.0,20.0,-999,-99.99,,,-99.99,,2013-06-05 19:40:00,
2013-06-05 16:12:00,52.0,-99.9,-100.00,ENE,75,13.0,20.0,-999,-99.99,,,-99.99,,2013-06-05 20:12:00,
2013-06-05 16:23:00,52.0,-99.9,-100.00,ENE,75,13.0,20.0,-999,-99.99,,,-99.99,,2013-06-05 20:23:00,
2013-06-05 16:32:00,52.0,-99.9,-100.00,ENE,75,13.0,20.0,-999,-99.99,,,-99.99,,2013-06-05 20:32:00,
2013-06-05 16:40:00,51.0,-99.9,-100.00,ENE,64,12.0,19.0,-999,-99.99,,,-99.99,,2013-06-05 20:40:00,
2013-06-05 17:02:00,51.0,-99.9,-100.00,ENE,64,12.0,19.0,-999,-99.99,,,-99.99,,2013-06-05 21:02:00,
2013-06-05 17:12:00,51.0,-99.9,-100.00,ENE,64,12.0,19.0,-999,-99.99,,,-99.99,,2013-06-05 21:12:00,
2013-06-05 17:23:00,51.0,-99.9,-100.00,ENE,64,12.0,19.0,-999,-99.99,,,-99.99,,2013-06-05 21:23:00,
2013-06-05 17:33:00,51.0,-99.9,-100.00,ENE,64,12.0,19.0,-999,-99.99,,,-99.99,,2013-06-05 21:33:00,
2013-06-05 17:40:00,51.0,-99.9,-100.00,ENE,67,12.0,17.0,-999,-99.99,,,-99.99,,2013-06-05 21:40:00,
2013-06-05 18:03:00,51.0,-99.9,-100.00,ENE,67,12.0,17.0,-999,-99.99,,,-99.99,,2013-06-05 22:03:00,
2013-06-05 18:13:00,51.0,-99.9,-100.00,ENE,67,12.0,17.0,-999,-99.99,,,-99.99,,2013-06-05 22:13:00,
2013-06-05 18:23:00,51.0,-99.9,-100.00,ENE,67,12.0,17.0,-999,-99.99,,,-99.99,,2013-06-05 22:23:00,
2013-06-05 18:33:00,51.0,-99.9,-100.00,ENE,67,12.0,17.0,-999,-99.99,,,-99.99,,2013-06-05 22:33:00,
2013-06-05 18:40:00,50.0,-99.9,-100.00,ENE,63,8.0,14.0,-999,-99.99,,,-99.99,,2013-06-05 22:40:00,
2013-06-05 19:02:00,50.0,-99.9,-100.00,ENE,63,8.0,14.0,-999,-99.99,,,-99.99,,2013-06-05 23:02:00,
2013-06-05 19:12:00,50.0,-99.9,-100.00,ENE,63,8.0,14.0,-999,-99.99,,,-99.99,,2013-06-05 23:12:00,
2013-06-05 19:22:00,50.0,-99.9,-100.00,ENE,63,8.0,14.0,-999,-99.99,,,-99.99,,2013-06-05 23:22:00,
2013-06-05 19:32:00,50.0,-99.9,-100.00,ENE,63,8.0,14.0,-999,-99.99,,,-99.99,,2013-06-05 23:32:00,
2013-06-05 19:40:00,48.0,-99.9,-100.00,NE,45,11.0,17.0,-999,-99.99,,,-99.99,,2013-06-05 23:40:00,
2013-06-05 20:02:00,48.0,-99.9,-100.00,NE,45,11.0,17.0,-999,-99.99,,,-99.99,,2013-06-06 00:02:00,
2013-06-05 20:12:00,48.0,-99.9,-100.00,NE,45,11.0,17.0,-999,-99.99,,,-99.99,,2013-06-06 00:12:00,
2013-06-05 20:22:00,48.0,-99.9,-100.00,NE,45,11.0,17.0,-999,-99.99,,,-99.99,,2013-06-06 00:22:00,
2013-06-05 20:32:00,48.0,-99.9,-100.00,NE,45,11.0,17.0,-999,-99.99,,,-99.99,,2013-06-06 00:32:00,
2013-06-05 20:40:00,48.0,-99.9,-100.00,NE,52,10.0,19.0,-999,-99.99,,,-99.99,,2013-06-06 00:40:00,
2013-06-05 21:02:00,48.0,-99.9,-100.00,NE,52,10.0,19.0,-999,-99.99,,,-99.99,,2013-06-06 01:02:00,
2013-06-05 21:13:00,48.0,-99.9,-100.00,NE,52,10.0,19.0,-999,-99.99,,,-99.99,,2013-06-06 01:13:00,
2013-06-05 21:22:00,48.0,-99.9,-100.00,NE,52,10.0,19.0,-999,-99.99,,,-99.99,,2013-06-06 01:22:00,
2013-06-05 21:32:00,48.0,-99.9,-100.00,NE,52,10.0,19.0,-999,-99.99,,,-99.99,,2013-06-06 01:32:00,
2013-06-05 21:40:00,48.0,-99.9,-100.00,NE,49,12.0,20.0,-999,-99.99,,,-99.99,,2013-06-06 01:40:00,
2013-06-05 22:02:00,48.0,-99.9,-100.00,NE,49,12.0,20.0,-999,-99.99,,,-99.99,,2013-06-06 02:02:00,
2013-06-05 22:12:00,48.0,-99.9,-100.00,NE,49,12.0,20.0,-999,-99.99,,,-99.99,,2013-06-06 02:12:00,
2013-06-05 22:22:00,48.0,-99.9,-100.00,NE,49,12.0,20.0,-999,-99.99,,,-99.99,,2013-06-06 02:22:00,
2013-06-05 22:32:00,48.0,-99.9,-100.00,NE,49,12.0,20.0,-999,-99.99,,,-99.99,,2013-06-06 02:32:00,
2013-06-05 22:40:00,49.0,-99.9,-100.00,NE,51,13.0,20.0,-999,-99.99,,,-99.99,,2013-06-06 02:40:00,
2013-06-05 23:12:00,49.0,-99.9,-100.00,NE,51,13.0,20.0,-999,-99.99,,,-99.99,,2013-06-06 03:12:00,
2013-06-05 23:22:00,49.0,-99.9,-100.00,NE,51,13.0,20.0,-999,-99.99,,,-99.99,,2013-06-06 03:22:00,
2013-06-05 23:33:00,49.0,-99.9,-100.00,NE,51,13.0,20.0,-999,-99.99,,,-99.99,,2013-06-06 03:33:00,
2013-06-05 23:40:00,49.0,-99.9,-100.00,NE,51,12.0,18.0,-999,-99.99,,,-99.99,,2013-06-06 03:40:00,